Terminal Aerodrome Forecast
Issued by NWS Des Moines, IA

Home | Current Version | Previous Version | Text Only | Print | Product List | Glossary On
Versions: 1 2 3 4 5 6 7 8 9 10 11 12 13 14 15 16 17 18 19 20 21 22 23
000
FTUS43 KDMX 271734
TAFALO
TAF
KALO 271734Z 2718/2818 18006KT P6SM SCT040 BKN200
     FM280000 17005KT P6SM VCTS SCT045CB BKN150
     FM280300 VRB03KT P6SM BKN200
     FM281000 32004KT P6SM BKN010
     FM281700 01007KT P6SM BKN025=

USA.gov is the U.S. government's official web portal to all federal, state and local government web resources and services.